createdAt,value
2023-03-26T00:01:50.770Z,95635.00
2023-03-26T00:06:51.566Z,95647.00
2023-03-26T00:11:52.650Z,95645.00
2023-03-26T00:16:53.475Z,95643.00
2023-03-26T00:21:54.531Z,95643.00
2023-03-26T00:26:54.859Z,95643.00
2023-03-26T00:31:55.960Z,95647.00
2023-03-26T00:36:56.770Z,95643.00
2023-03-26T00:41:57.582Z,95643.00
2023-03-26T00:46:58.650Z,95641.00
2023-03-26T00:51:59.476Z,95635.00
2023-03-26T00:57:00.349Z,95643.00
2023-03-26T01:02:01.438Z,95633.00
2023-03-26T01:07:02.234Z,95633.00
2023-03-26T01:12:03.059Z,95639.00
2023-03-26T01:17:04.161Z,95643.00
2023-03-26T01:22:04.970Z,95645.00
2023-03-26T01:27:05.783Z,95641.00
2023-03-26T01:32:06.863Z,95633.00
2023-03-26T01:37:07.712Z,95627.00
2023-03-26T01:42:08.555Z,95612.00
2023-03-26T01:47:09.672Z,95602.00
2023-03-26T01:52:10.502Z,95608.00
2023-03-26T01:57:11.375Z,95604.00
2023-03-26T02:02:12.588Z,95604.00
2023-03-26T02:07:13.412Z,95592.00
2023-03-26T02:12:14.255Z,95586.00
2023-03-26T02:17:15.339Z,95580.00
2023-03-26T02:22:16.187Z,95580.00
2023-03-26T02:27:17.036Z,95578.00
2023-03-26T02:32:18.149Z,95580.00
2023-03-26T02:37:19.088Z,95574.00
2023-03-26T02:42:19.920Z,95565.00
2023-03-26T02:47:21.066Z,95572.00
2023-03-26T02:52:21.924Z,95565.00
2023-03-26T02:57:22.784Z,95553.00
2023-03-26T03:02:23.908Z,95545.00
2023-03-26T03:07:24.742Z,95535.00
2023-03-26T03:12:25.570Z,95523.00
2023-03-26T03:17:26.694Z,95514.00
2023-03-26T03:22:27.517Z,95512.00
2023-03-26T03:27:28.366Z,95500.00
2023-03-26T03:32:29.510Z,95498.00
2023-03-26T03:37:30.328Z,95500.00
2023-03-26T03:42:31.290Z,95502.00
2023-03-26T03:47:32.352Z,95498.00
2023-03-26T03:52:33.138Z,95500.00
2023-03-26T03:57:33.965Z,95496.00
2023-03-26T04:02:35.302Z,95488.00
2023-03-26T04:07:35.626Z,95482.00
2023-03-26T04:12:36.437Z,95469.00
2023-03-26T04:17:37.289Z,95457.00
2023-03-26T04:22:38.310Z,95463.00
2023-03-26T04:27:39.123Z,95461.00
2023-03-26T04:32:39.900Z,95457.00
2023-03-26T04:37:40.918Z,95455.00
2023-03-26T04:42:41.808Z,95445.00
2023-03-26T04:47:42.584Z,95435.00
2023-03-26T04:52:45.326Z,95435.00
2023-03-26T04:57:44.284Z,95429.00
2023-03-26T05:02:45.092Z,95431.00
2023-03-26T05:07:46.050Z,95426.00
2023-03-26T05:12:46.932Z,95414.00
2023-03-26T05:17:47.721Z,95412.00
2023-03-26T05:22:48.720Z,95396.00
2023-03-26T05:27:49.484Z,95384.00
2023-03-26T05:32:50.364Z,95376.00
2023-03-26T05:37:51.481Z,95373.00
2023-03-26T05:42:52.251Z,95363.00
2023-03-26T05:47:53.060Z,95355.00
2023-03-26T05:52:54.062Z,95347.00
2023-03-26T05:57:54.824Z,95335.00
2023-03-26T06:02:56.383Z,95329.00
2023-03-26T06:07:56.106Z,95326.00
2023-03-26T06:12:56.848Z,95324.00
2023-03-26T06:17:57.908Z,95327.00
2023-03-26T06:22:58.645Z,95318.00
2023-03-26T06:27:59.383Z,95310.00
2023-03-26T06:33:00.460Z,95316.00
2023-03-26T06:38:01.172Z,95314.00
2023-03-26T06:43:08.133Z,95306.00
2023-03-26T06:48:03.726Z,95302.00
2023-03-26T06:53:03.373Z,95292.00
2023-03-26T06:58:04.334Z,95288.00
2023-03-26T07:03:05.068Z,95280.00
2023-03-26T07:08:05.723Z,95271.00
2023-03-26T07:13:06.679Z,95263.00
2023-03-26T07:18:07.399Z,95259.00
2023-03-26T07:23:08.090Z,95253.00
2023-03-26T07:28:09.044Z,95249.00
2023-03-26T07:33:09.720Z,95241.00
2023-03-26T07:38:10.428Z,95233.00
2023-03-26T07:43:11.337Z,95227.00
2023-03-26T07:48:12.013Z,95216.00
2023-03-26T07:53:12.688Z,95198.00
2023-03-26T07:58:13.613Z,95177.00
2023-03-26T08:03:14.457Z,95169.00
2023-03-26T08:08:15.213Z,95159.00
2023-03-26T08:13:16.179Z,95151.00
2023-03-26T08:18:16.865Z,95135.00
2023-03-26T08:23:17.543Z,95133.00
2023-03-26T08:28:18.501Z,95120.00
2023-03-26T08:33:19.240Z,95110.00
2023-03-26T08:38:19.906Z,95102.00
2023-03-26T08:43:20.886Z,95114.00
2023-03-26T08:48:21.590Z,95131.00
2023-03-26T08:53:22.310Z,95120.00
2023-03-26T08:58:23.278Z,95108.00
2023-03-26T09:03:24.101Z,95086.00
2023-03-26T09:08:24.802Z,95106.00
2023-03-26T09:13:26.612Z,95114.00
2023-03-26T09:18:26.295Z,95108.00
2023-03-26T09:23:27.244Z,95096.00
2023-03-26T09:28:27.928Z,95090.00
2023-03-26T09:33:28.613Z,95075.00
2023-03-26T09:38:29.578Z,95084.00
2023-03-26T09:43:30.258Z,95075.00
2023-03-26T09:48:30.930Z,95073.00
2023-03-26T09:53:31.862Z,95067.00
2023-03-26T09:58:32.526Z,95065.00
2023-03-26T10:03:33.372Z,95047.00
2023-03-26T10:08:34.234Z,95047.00
2023-03-26T10:13:34.887Z,95033.00
2023-03-26T10:18:35.549Z,95045.00
2023-03-26T10:23:36.467Z,95045.00
2023-03-26T10:28:37.126Z,95023.00
2023-03-26T10:33:37.776Z,95035.00
2023-03-26T10:38:38.671Z,95041.00
2023-03-26T10:43:39.338Z,95051.00
2023-03-26T10:48:40.007Z,95049.00
2023-03-26T10:53:40.910Z,95033.00
2023-03-26T10:58:49.483Z,95014.00
2023-03-26T11:03:43.315Z,95014.00
2023-03-26T11:08:42.956Z,95010.00
2023-03-26T11:13:43.827Z,94990.00
2023-03-26T11:18:44.680Z,95006.00
2023-03-26T11:23:45.277Z,95014.00
2023-03-26T11:29:03.241Z,95029.00
2023-03-26T11:33:48.005Z,95014.00
2023-03-26T11:38:47.713Z,94994.00
2023-03-26T11:43:48.631Z,94982.00
2023-03-26T11:48:49.278Z,94957.00
2023-03-26T11:53:49.948Z,94988.00
2023-03-26T11:58:50.853Z,94971.00
2023-03-26T12:03:51.493Z,94949.00
2023-03-26T12:08:52.153Z,94961.00
2023-03-26T12:13:53.116Z,94957.00
2023-03-26T12:18:53.769Z,94963.00
2023-03-26T12:23:54.422Z,94953.00
2023-03-26T12:28:55.337Z,94947.00
2023-03-26T12:33:58.087Z,94943.00
2023-03-26T12:39:17.006Z,94945.00
2023-03-26T12:44:50.756Z,94953.00
2023-03-26T12:48:59.642Z,94953.00
2023-03-26T12:53:59.551Z,94969.00
2023-03-26T12:59:00.225Z,94992.00
2023-03-26T13:04:01.155Z,94971.00
2023-03-26T13:09:01.837Z,94975.00
2023-03-26T13:14:02.541Z,94980.00
2023-03-26T13:19:03.479Z,94951.00
2023-03-26T13:24:04.362Z,94957.00
2023-03-26T13:29:05.006Z,94945.00
2023-03-26T13:34:05.938Z,94922.00
2023-03-26T13:39:06.568Z,94918.00
2023-03-26T13:44:07.213Z,94929.00
2023-03-26T13:49:08.108Z,95000.00
2023-03-26T13:54:08.791Z,94971.00
2023-03-26T13:59:09.408Z,94955.00
2023-03-26T14:04:10.347Z,94933.00
2023-03-26T14:09:11.048Z,94908.00
2023-03-26T14:14:11.697Z,94878.00
2023-03-26T14:19:12.576Z,94867.00
2023-03-26T14:24:13.178Z,94847.00
2023-03-26T14:29:13.799Z,94843.00
2023-03-26T14:34:14.681Z,94835.00
2023-03-26T14:39:15.308Z,94835.00
2023-03-26T14:44:15.922Z,94826.00
2023-03-26T14:49:16.834Z,94822.00
2023-03-26T14:54:17.461Z,94816.00
2023-03-26T14:59:18.100Z,94822.00
2023-03-26T15:04:18.988Z,94831.00
2023-03-26T15:09:19.579Z,94828.00
2023-03-26T15:14:20.187Z,94831.00
2023-03-26T15:19:21.061Z,94829.00
2023-03-26T15:24:21.704Z,94820.00
2023-03-26T15:29:22.323Z,94820.00
2023-03-26T15:34:23.246Z,94808.00
2023-03-26T15:39:23.889Z,94808.00
2023-03-26T15:44:25.527Z,94806.00
2023-03-26T15:49:25.261Z,94810.00
2023-03-26T15:54:26.161Z,94808.00
2023-03-26T15:59:26.813Z,94802.00
2023-03-26T16:04:27.432Z,94800.00
2023-03-26T16:09:28.282Z,94796.00
2023-03-26T16:14:28.930Z,94800.00
2023-03-26T16:19:29.554Z,94802.00
2023-03-26T16:24:30.417Z,94800.00
2023-03-26T16:29:31.041Z,94802.00
2023-03-26T16:34:31.684Z,94788.00
2023-03-26T16:39:32.073Z,94782.00
2023-03-26T16:44:32.965Z,94777.00
2023-03-26T16:49:33.608Z,94769.00
2023-03-26T16:54:34.616Z,94777.00
2023-03-26T16:59:34.723Z,94779.00
2023-03-26T17:04:35.593Z,94775.00
2023-03-26T17:09:36.204Z,94775.00
2023-03-26T17:14:36.827Z,94775.00
2023-03-26T17:19:37.692Z,94769.00
2023-03-26T17:24:38.338Z,94771.00
2023-03-26T17:29:38.944Z,94782.00
2023-03-26T17:34:40.121Z,94794.00
2023-03-26T17:39:40.305Z,94796.00
2023-03-26T17:44:40.954Z,94802.00
2023-03-26T17:49:41.562Z,94812.00
2023-03-26T17:54:42.465Z,94828.00
2023-03-26T17:59:43.107Z,94849.00
2023-03-26T18:04:43.728Z,94855.00
2023-03-26T18:09:44.615Z,94855.00
2023-03-26T18:14:45.365Z,94847.00
2023-03-26T18:19:45.938Z,94847.00
2023-03-26T18:24:46.829Z,94847.00
2023-03-26T18:29:47.455Z,94861.00
2023-03-26T18:34:48.082Z,94857.00
2023-03-26T18:39:48.971Z,94861.00
2023-03-26T18:44:49.600Z,94859.00
2023-03-26T18:49:50.220Z,94845.00
2023-03-26T18:54:51.104Z,94847.00
2023-03-26T18:59:51.764Z,94855.00
2023-03-26T19:04:52.413Z,94849.00
2023-03-26T19:09:53.307Z,94839.00
2023-03-26T19:14:53.945Z,94853.00
2023-03-26T19:19:54.567Z,94859.00
2023-03-26T19:24:55.522Z,94859.00
2023-03-26T19:29:56.164Z,94861.00
2023-03-26T19:34:56.818Z,94861.00
2023-03-26T19:39:57.714Z,94865.00
2023-03-26T19:44:58.355Z,94867.00
2023-03-26T19:49:58.986Z,94869.00
2023-03-26T19:55:00.639Z,94869.00
2023-03-26T20:00:00.498Z,94865.00
2023-03-26T20:05:01.153Z,94857.00
2023-03-26T20:10:02.939Z,94865.00
2023-03-26T20:15:02.745Z,94863.00
2023-03-26T20:20:03.394Z,94863.00
2023-03-26T20:25:04.523Z,94876.00
2023-03-26T20:30:05.932Z,94880.00
2023-03-26T20:35:05.594Z,94896.00
2023-03-26T20:40:06.251Z,94890.00
2023-03-26T20:45:07.164Z,94875.00
2023-03-26T20:50:07.862Z,94867.00
2023-03-26T20:55:08.606Z,94859.00
2023-03-26T21:00:09.573Z,94861.00
2023-03-26T21:05:10.295Z,94863.00
2023-03-26T21:10:11.042Z,94871.00
2023-03-26T21:15:22.421Z,94867.00
2023-03-26T21:20:13.880Z,94869.00
2023-03-26T21:25:13.636Z,94865.00
2023-03-26T21:30:14.644Z,94865.00
2023-03-26T21:35:15.460Z,94867.00
2023-03-26T21:40:16.184Z,94861.00
2023-03-26T21:45:17.200Z,94863.00
2023-03-26T21:50:17.998Z,94861.00
2023-03-26T21:55:18.728Z,94859.00
2023-03-26T22:00:19.970Z,94857.00
2023-03-26T22:05:20.483Z,94859.00
2023-03-26T22:10:21.252Z,94863.00
2023-03-26T22:15:22.313Z,94865.00
2023-03-26T22:20:23.110Z,94865.00
2023-03-26T22:25:23.947Z,94863.00
2023-03-26T22:30:24.984Z,94871.00
2023-03-26T22:35:25.783Z,94863.00
2023-03-26T22:40:26.561Z,94867.00
2023-03-26T22:45:27.624Z,94867.00
2023-03-26T22:50:28.428Z,94859.00
2023-03-26T22:55:29.793Z,94855.00
2023-03-26T23:00:29.909Z,94859.00
2023-03-26T23:05:30.999Z,94855.00
2023-03-26T23:10:31.772Z,94859.00
2023-03-26T23:15:32.592Z,94851.00
2023-03-26T23:20:33.680Z,94847.00
2023-03-26T23:25:34.497Z,94849.00
2023-03-26T23:30:35.299Z,94843.00
2023-03-26T23:35:36.433Z,94849.00
2023-03-26T23:40:37.235Z,94847.00
2023-03-26T23:45:38.112Z,94849.00
2023-03-26T23:50:39.161Z,94851.00
2023-03-26T23:55:40.003Z,94847.00
